Time;durP1;ratioP1;P1;durP2;ratioP2;P2;SDS_P1;SDS_P2;PMS_P1;PMS_P2;Temp;Humidity;BMP_temperature;BMP_pressure;BME280_temperature;BME280_humidity;BME280_pressure;Samples;Min_cycle;Max_cycle;Signal;HPM_P1;HPM_P2
2020/12/24 00:02:16;;;;;;;2.20;1.80;;;11.20;93.70;;;;;;5006830;28;20225;-88
2020/12/24 00:04:42;;;;;;;1.60;1.50;;;11.20;92.60;;;;;;5005848;28;20202;-89
2020/12/24 00:07:08;;;;;;;2.00;1.50;;;11.20;91.20;;;;;;5006495;28;20190;-88
2020/12/24 00:09:33;;;;;;;1.60;1.50;;;11.20;90.80;;;;;;5004862;28;20210;-88
2020/12/24 00:11:59;;;;;;;1.50;1.43;;;11.20;89.90;;;;;;5026241;28;20210;-89
2020/12/24 00:14:24;;;;;;;2.00;1.67;;;11.20;90.60;;;;;;5025771;28;20184;-89
2020/12/24 00:16:50;;;;;;;2.00;1.80;;;11.20;91.20;;;;;;5026517;28;20170;-89
2020/12/24 00:19:17;;;;;;;2.93;1.67;;;11.20;90.20;;;;;;5026395;28;20186;-89
2020/12/24 00:21:42;;;;;;;1.70;1.50;;;11.20;91.10;;;;;;5025584;28;20268;-89
2020/12/24 00:24:08;;;;;;;1.53;1.43;;;11.20;90.50;;;;;;5027178;28;20185;-90
2020/12/24 00:26:34;;;;;;;1.60;1.50;;;11.10;90.30;;;;;;5026380;28;20660;-89
2020/12/24 00:29:05;;;;;;;2.17;1.70;;;11.20;89.50;;;;;;5025047;28;20277;-88
2020/12/24 00:31:31;;;;;;;1.60;1.50;;;11.20;89.60;;;;;;5026580;28;20166;-89
2020/12/24 00:33:57;;;;;;;1.57;1.47;;;11.20;87.00;;;;;;5026828;28;20193;-88
2020/12/24 00:36:22;;;;;;;1.43;1.33;;;11.30;87.50;;;;;;5025197;28;20188;-88
2020/12/24 00:38:48;;;;;;;2.27;1.40;;;11.20;87.80;;;;;;5026997;28;20604;-89
2020/12/24 00:41:14;;;;;;;1.80;1.53;;;11.10;88.70;;;;;;5027443;28;20182;-89
2020/12/24 00:43:39;;;;;;;1.97;1.50;;;11.00;86.90;;;;;;5026750;28;20213;-89
2020/12/24 00:46:05;;;;;;;1.30;1.30;;;11.10;86.90;;;;;;5027372;28;20189;-88
2020/12/24 00:48:31;;;;;;;2.03;1.50;;;11.20;85.80;;;;;;5026192;28;20216;-89
2020/12/24 00:50:56;;;;;;;2.33;1.50;;;11.00;86.70;;;;;;5026619;28;20185;-89
2020/12/24 00:53:22;;;;;;;2.37;1.30;;;11.00;86.60;;;;;;5026197;28;20218;-88
2020/12/24 00:55:48;;;;;;;2.13;1.50;;;11.00;87.10;;;;;;5026889;28;20208;-89
2020/12/24 00:58:13;;;;;;;1.60;1.50;;;11.10;87.80;;;;;;5027094;28;20220;-89
2020/12/24 01:00:39;;;;;;;1.67;1.40;;;11.00;88.30;;;;;;5027619;28;20209;-89
2020/12/24 01:03:05;;;;;;;1.97;1.60;;;11.00;89.40;;;;;;5027019;28;20216;-88
2020/12/24 01:05:31;;;;;;;1.27;1.27;;;11.00;88.60;;;;;;5027426;28;20235;-88
2020/12/24 01:07:57;;;;;;;1.77;1.33;;;11.00;89.80;;;;;;5026138;28;20200;-89
2020/12/24 01:10:23;;;;;;;1.40;1.40;;;11.00;90.50;;;;;;5027387;28;20232;-88
2020/12/24 01:12:49;;;;;;;1.43;1.33;;;11.10;89.90;;;;;;5026959;28;20259;-88
2020/12/24 01:15:14;;;;;;;1.37;1.30;;;11.00;91.20;;;;;;5026041;28;20194;-87
2020/12/24 01:17:40;;;;;;;6.63;1.27;;;10.90;92.50;;;;;;5026072;28;20274;-88
2020/12/24 01:20:06;;;;;;;1.50;1.40;;;10.80;92.90;;;;;;5025382;28;20644;-89
2020/12/24 01:22:32;;;;;;;1.70;1.60;;;10.80;92.80;;;;;;5025797;28;20220;-88
2020/12/24 01:24:58;;;;;;;1.50;1.40;;;10.80;93.40;;;;;;5025704;28;20190;-88
2020/12/24 01:27:24;;;;;;;3.70;2.00;;;10.80;93.10;;;;;;5027014;28;20186;-89
2020/12/24 01:29:50;;;;;;;1.87;1.30;;;10.80;92.30;;;;;;5027073;28;20213;-88
2020/12/24 01:32:17;;;;;;;1.70;1.60;;;10.80;92.70;;;;;;5018228;28;20214;-89
2020/12/24 01:34:43;;;;;;;1.60;1.50;;;10.80;92.00;;;;;;5005720;28;20197;-88
2020/12/24 01:37:08;;;;;;;1.47;1.37;;;10.80;90.20;;;;;;5007874;28;20190;-87
2020/12/24 01:39:34;;;;;;;1.40;1.30;;;10.80;86.30;;;;;;5006773;28;20200;-88
2020/12/24 01:42:00;;;;;;;1.43;1.33;;;10.90;82.30;;;;;;5008238;28;20206;-89
2020/12/24 01:44:25;;;;;;;2.80;1.50;;;10.80;81.30;;;;;;5007261;28;20225;-89
2020/12/24 01:46:52;;;;;;;1.40;1.30;;;10.80;80.60;;;;;;5006059;28;20249;-88
2020/12/24 01:49:19;;;;;;;2.90;1.50;;;10.80;80.70;;;;;;5007579;28;20217;-88
2020/12/24 01:51:53;;;;;;;2.23;1.50;;;10.70;77.00;;;;;;5006798;28;20233;-88
2020/12/24 01:54:21;;;;;;;3.23;1.50;;;10.70;77.40;;;;;;5007283;28;20212;-88
2020/12/24 01:56:47;;;;;;;1.83;1.33;;;10.70;75.40;;;;;;5006844;28;20182;-89
2020/12/24 01:59:17;;;;;;;2.57;1.60;;;10.70;76.30;;;;;;5007056;28;20202;-90
2020/12/24 02:01:48;;;;;;;2.83;1.40;;;10.70;76.00;;;;;;5007227;28;20210;-88
2020/12/24 02:04:14;;;;;;;3.07;1.80;;;10.60;76.30;;;;;;5009294;28;20186;-88
2020/12/24 02:06:47;;;;;;;2.53;1.37;;;10.60;76.50;;;;;;5026436;28;20182;-88
2020/12/24 02:09:13;;;;;;;2.53;1.40;;;10.50;75.90;;;;;;5025029;28;20595;-90
2020/12/24 02:11:40;;;;;;;2.57;1.60;;;10.50;76.00;;;;;;5025378;28;20186;-89
2020/12/24 02:14:06;;;;;;;3.37;1.70;;;10.50;77.60;;;;;;5011873;28;20193;-88
2020/12/24 02:16:36;;;;;;;3.27;1.40;;;10.30;76.80;;;;;;5006249;28;20190;-89
2020/12/24 02:19:04;;;;;;;3.00;1.97;;;10.20;76.50;;;;;;5006757;28;20198;-89
2020/12/24 02:21:31;;;;;;;1.60;1.43;;;10.20;77.70;;;;;;5016298;28;20185;-89
2020/12/24 02:23:56;;;;;;;2.23;1.50;;;10.30;77.60;;;;;;5021389;28;20184;-89
2020/12/24 02:26:22;;;;;;;2.07;1.60;;;10.20;76.90;;;;;;5020952;28;20541;-88
2020/12/24 02:28:48;;;;;;;2.57;1.50;;;10.20;77.80;;;;;;5020343;28;20181;-88
2020/12/24 02:31:14;;;;;;;4.33;1.70;;;10.30;76.80;;;;;;5021501;28;20560;-88
2020/12/24 02:33:39;;;;;;;1.63;1.40;;;10.30;76.90;;;;;;5020952;28;20312;-88
2020/12/24 02:36:05;;;;;;;2.03;1.60;;;10.40;76.10;;;;;;5020549;28;20208;-90
2020/12/24 02:38:31;;;;;;;2.10;1.43;;;10.30;77.60;;;;;;5021515;28;20329;-89
2020/12/24 02:40:57;;;;;;;2.20;1.50;;;10.30;78.40;;;;;;5020683;28;20311;-89
2020/12/24 02:43:23;;;;;;;1.20;1.10;;;10.20;80.20;;;;;;5019926;28;20240;-88
2020/12/24 02:45:49;;;;;;;2.00;1.13;;;10.20;80.60;;;;;;5020405;28;20189;-87
2020/12/24 02:48:14;;;;;;;2.10;1.33;;;10.10;79.60;;;;;;5020387;28;20224;-88
2020/12/24 02:50:40;;;;;;;2.20;1.30;;;10.20;79.70;;;;;;5021297;28;20186;-88
2020/12/24 02:53:06;;;;;;;1.90;1.40;;;10.10;79.80;;;;;;5022749;28;20197;-88
2020/12/24 02:55:31;;;;;;;1.80;1.33;;;10.10;79.60;;;;;;5021751;28;20194;-87
2020/12/24 02:57:57;;;;;;;1.40;1.30;;;10.10;79.20;;;;;;5020876;28;20224;-89
2020/12/24 03:00:23;;;;;;;2.17;1.40;;;10.20;77.60;;;;;;5020842;28;20190;-89
2020/12/24 03:02:48;;;;;;;1.50;1.40;;;10.10;78.70;;;;;;5020287;28;20206;-88
2020/12/24 03:05:14;;;;;;;2.27;1.50;;;10.00;78.10;;;;;;5014351;28;20190;-88
2020/12/24 03:07:40;;;;;;;2.07;1.77;;;10.00;78.60;;;;;;4983621;28;20186;-88
2020/12/24 03:10:06;;;;;;;1.60;1.13;;;10.10;78.50;;;;;;5000537;28;20197;-89
2020/12/24 03:12:32;;;;;;;3.37;1.20;;;10.00;78.10;;;;;;4997848;28;20263;-88
2020/12/24 03:14:57;;;;;;;1.30;1.20;;;10.00;79.50;;;;;;4981704;28;20284;-89
2020/12/24 03:17:23;;;;;;;2.70;1.57;;;9.90;80.80;;;;;;4999333;28;20214;-88
2020/12/24 03:19:49;;;;;;;2.50;1.37;;;10.00;80.50;;;;;;4998598;28;20179;-88
2020/12/24 03:22:14;;;;;;;1.73;1.33;;;9.90;80.70;;;;;;4998690;28;20253;-88
2020/12/24 03:24:40;;;;;;;3.03;1.50;;;9.90;81.70;;;;;;4998899;28;20181;-88
2020/12/24 03:27:06;;;;;;;2.87;1.33;;;9.90;81.70;;;;;;4998728;28;20174;-88
2020/12/24 03:29:31;;;;;;;2.67;1.60;;;9.90;80.90;;;;;;4998786;28;20227;-89
2020/12/24 03:31:57;;;;;;;1.93;1.43;;;9.90;82.80;;;;;;4998890;28;20535;-88
2020/12/24 03:34:24;;;;;;;1.57;1.27;;;9.90;83.60;;;;;;4998683;28;20201;-89
2020/12/24 03:36:49;;;;;;;2.37;1.60;;;9.90;83.80;;;;;;4999018;28;20198;-89
2020/12/24 03:39:15;;;;;;;1.33;1.23;;;9.90;84.80;;;;;;4998881;28;20693;-88
2020/12/24 03:41:41;;;;;;;3.17;1.60;;;9.70;85.00;;;;;;4998852;28;20258;-89
2020/12/24 03:44:06;;;;;;;1.40;1.30;;;9.70;84.40;;;;;;5000874;28;20544;-88
2020/12/24 03:46:33;;;;;;;2.43;1.63;;;9.70;84.70;;;;;;5003046;28;20178;-89
2020/12/24 03:49:00;;;;;;;2.37;1.23;;;9.70;84.60;;;;;;5002912;28;20187;-88
2020/12/24 03:51:25;;;;;;;5.20;1.90;;;9.60;85.40;;;;;;5002068;28;20189;-89
2020/12/24 03:53:51;;;;;;;2.23;1.40;;;9.60;85.30;;;;;;5003193;28;20630;-88
2020/12/24 03:56:17;;;;;;;2.53;1.50;;;9.60;86.30;;;;;;5001799;28;20250;-89
2020/12/24 03:58:42;;;;;;;1.60;1.40;;;9.60;87.90;;;;;;5001759;28;20740;-88
2020/12/24 04:01:10;;;;;;;3.47;1.47;;;9.60;86.90;;;;;;5001000;28;20236;-89
2020/12/24 04:03:35;;;;;;;1.47;1.20;;;9.60;86.10;;;;;;5000337;28;20289;-88
2020/12/24 04:06:04;;;;;;;2.23;1.50;;;9.60;86.60;;;;;;5002042;28;20209;-88
2020/12/24 04:08:29;;;;;;;1.53;1.40;;;9.50;86.90;;;;;;5002362;28;20190;-88
2020/12/24 04:10:55;;;;;;;2.73;1.60;;;9.50;86.10;;;;;;5002492;28;20182;-88
2020/12/24 04:13:21;;;;;;;1.17;1.13;;;9.50;86.70;;;;;;5001474;28;20217;-87
2020/12/24 04:15:46;;;;;;;6.40;1.50;;;9.40;86.50;;;;;;5001334;28;20795;-89
2020/12/24 04:18:12;;;;;;;2.37;1.30;;;9.30;86.50;;;;;;5000346;28;20218;-89
2020/12/24 04:20:37;;;;;;;1.83;1.40;;;9.30;85.90;;;;;;5001850;28;20183;-89
2020/12/24 04:23:03;;;;;;;1.83;1.20;;;9.30;87.30;;;;;;5000242;28;20202;-88
2020/12/24 04:25:29;;;;;;;3.67;1.40;;;9.30;86.10;;;;;;5001732;28;20175;-88
2020/12/24 04:27:54;;;;;;;1.10;1.00;;;9.20;85.30;;;;;;5001518;28;20289;-89
2020/12/24 04:30:20;;;;;;;1.73;1.17;;;9.30;83.80;;;;;;5001188;28;20178;-88
2020/12/24 04:32:45;;;;;;;1.80;1.20;;;9.20;84.20;;;;;;5000990;28;20201;-88
2020/12/24 04:35:11;;;;;;;4.07;1.60;;;9.20;83.50;;;;;;5001843;28;20217;-89
2020/12/24 04:37:37;;;;;;;1.93;1.10;;;9.10;83.80;;;;;;5000048;28;20213;-88
2020/12/24 04:40:02;;;;;;;1.97;1.30;;;9.20;83.40;;;;;;5001733;28;20262;-88
2020/12/24 04:42:31;;;;;;;3.23;1.30;;;9.10;83.60;;;;;;5002604;28;20241;-89
2020/12/24 04:44:58;;;;;;;2.23;1.30;;;9.20;83.10;;;;;;5001528;28;20186;-88
2020/12/24 04:47:25;;;;;;;3.83;1.40;;;9.20;84.20;;;;;;5037795;28;20283;-88
2020/12/24 04:49:51;;;;;;;1.30;1.20;;;9.20;84.00;;;;;;5041521;28;20189;-88
2020/12/24 04:52:18;;;;;;;1.20;1.20;;;9.20;84.10;;;;;;5042014;28;20208;-88
2020/12/24 04:54:46;;;;;;;1.30;1.20;;;9.20;83.20;;;;;;5041241;28;20654;-88
2020/12/24 04:57:12;;;;;;;1.77;1.27;;;9.20;83.90;;;;;;5040529;28;20189;-88
2020/12/24 04:59:38;;;;;;;2.03;1.40;;;9.30;84.50;;;;;;5004178;28;20209;-89
2020/12/24 05:02:05;;;;;;;3.10;1.50;;;9.20;83.40;;;;;;5034321;28;20205;-88
2020/12/24 05:04:32;;;;;;;5.17;1.67;;;9.30;83.80;;;;;;5040825;28;20173;-88
2020/12/24 05:07:03;;;;;;;1.90;1.40;;;9.20;83.90;;;;;;5039991;28;20181;-88
2020/12/24 05:09:28;;;;;;;2.83;1.43;;;9.20;83.00;;;;;;5039903;28;20260;-88
2020/12/24 05:11:54;;;;;;;2.57;1.40;;;9.30;82.50;;;;;;5011888;28;20238;-87
2020/12/24 05:14:22;;;;;;;2.47;1.50;;;9.30;83.10;;;;;;5002594;28;20201;-87
2020/12/24 05:16:58;;;;;;;3.37;1.97;;;9.30;82.20;;;;;;5000457;28;20182;-87
2020/12/24 05:19:24;;;;;;;3.67;1.60;;;9.30;81.30;;;;;;5001204;28;20661;-88
2020/12/24 05:21:50;;;;;;;2.87;1.80;;;9.30;81.00;;;;;;5001806;28;20178;-87
2020/12/24 05:24:27;;;;;;;2.00;1.37;;;9.30;80.80;;;;;;5003773;28;20883;-87
2020/12/24 05:27:07;;;;;;;1.83;1.50;;;9.30;81.10;;;;;;5021770;28;20208;-88
2020/12/24 05:29:36;;;;;;;2.10;1.50;;;9.30;81.10;;;;;;5021511;28;20189;-87
2020/12/24 05:32:02;;;;;;;3.80;1.60;;;9.30;80.20;;;;;;5021287;28;20201;-87
2020/12/24 05:34:28;;;;;;;2.47;1.80;;;9.40;78.70;;;;;;5021555;28;20264;-87
2020/12/24 05:37:08;;;;;;;2.70;1.83;;;9.40;78.70;;;;;;5021391;28;20558;-87
2020/12/24 05:39:34;;;;;;;4.80;1.90;;;9.40;77.90;;;;;;5020688;28;20166;-88
2020/12/24 05:42:03;;;;;;;2.80;1.47;;;9.40;77.20;;;;;;5005649;28;20275;-87
2020/12/24 05:44:29;;;;;;;2.53;1.60;;;9.40;77.20;;;;;;5001692;28;20174;-88
2020/12/24 05:46:55;;;;;;;3.47;2.33;;;9.40;76.50;;;;;;5001584;28;20193;-87
2020/12/24 05:49:22;;;;;;;2.00;1.50;;;9.40;77.30;;;;;;5001425;28;20198;-88
2020/12/24 05:52:05;;;;;;;4.23;1.70;;;9.40;77.50;;;;;;5000043;28;20202;-87
2020/12/24 05:54:34;;;;;;;2.43;1.50;;;9.50;76.60;;;;;;5001810;28;20248;-88
2020/12/24 05:57:01;;;;;;;4.33;1.70;;;9.40;77.00;;;;;;5003852;28;20182;-87
2020/12/24 05:59:28;;;;;;;3.10;1.50;;;9.50;76.40;;;;;;5020257;28;20205;-87
2020/12/24 06:02:29;;;;;;;3.50;1.77;;;9.50;76.30;;;;;;5020234;28;20200;-88
2020/12/24 06:05:05;;;;;;;4.77;1.40;;;9.50;76.60;;;;;;4987018;28;20217;-88
2020/12/24 06:07:32;;;;;;;2.60;1.67;;;9.50;77.30;;;;;;5018765;28;20663;-88
2020/12/24 06:10:08;;;;;;;3.23;1.63;;;9.40;78.00;;;;;;5019599;28;20189;-88
2020/12/24 06:12:48;;;;;;;4.20;1.93;;;9.40;78.10;;;;;;5019691;28;20193;-88
2020/12/24 06:15:16;;;;;;;4.00;1.80;;;9.40;78.40;;;;;;5020406;28;20203;-88
2020/12/24 06:17:44;;;;;;;2.57;1.70;;;9.40;77.90;;;;;;5020579;28;20663;-88
2020/12/24 06:20:17;;;;;;;2.60;1.63;;;9.30;78.50;;;;;;5021194;28;20174;-88
2020/12/24 06:22:43;;;;;;;6.17;2.00;;;9.20;78.10;;;;;;5021007;28;20201;-88
2020/12/24 06:25:12;;;;;;;3.40;1.70;;;9.10;78.10;;;;;;5021652;28;20260;-88
2020/12/24 06:27:50;;;;;;;3.77;1.57;;;9.10;80.10;;;;;;5020773;28;20182;-87
2020/12/24 06:30:28;;;;;;;4.47;2.00;;;9.00;79.00;;;;;;5020171;28;20252;-88
2020/12/24 06:32:54;;;;;;;4.13;1.70;;;8.90;81.50;;;;;;5019886;28;20293;-88
2020/12/24 06:35:32;;;;;;;3.87;1.80;;;9.00;79.60;;;;;;5016794;28;20202;-88
2020/12/24 06:37:57;;;;;;;3.77;1.80;;;8.90;80.90;;;;;;4998976;28;20217;-89
2020/12/24 06:40:33;;;;;;;3.57;1.40;;;8.90;80.30;;;;;;5000526;28;20175;-88
2020/12/24 06:42:59;;;;;;;3.17;1.63;;;8.90;81.30;;;;;;5000204;28;20634;-88
2020/12/24 06:45:27;;;;;;;3.60;1.80;;;8.80;80.90;;;;;;5000789;28;20174;-88
2020/12/24 06:48:15;;;;;;;2.30;1.60;;;8.80;82.30;;;;;;5000726;28;20676;-88
2020/12/24 06:50:43;;;;;;;4.70;1.73;;;8.80;79.50;;;;;;5000493;28;20602;-88
2020/12/24 06:53:26;;;;;;;4.93;1.70;;;8.90;81.20;;;;;;4999892;28;20844;-88
2020/12/24 06:56:17;;;;;;;4.97;1.80;;;8.80;82.30;;;;;;5006358;28;20189;-88
2020/12/24 06:58:43;;;;;;;3.67;1.90;;;8.80;81.90;;;;;;5019916;28;20197;-88
2020/12/24 07:01:35;;;;;;;4.00;1.70;;;8.80;81.20;;;;;;5020765;28;20522;-88
2020/12/24 07:04:03;;;;;;;3.47;1.83;;;8.80;82.80;;;;;;5020237;28;20174;-84
2020/12/24 07:06:41;;;;;;;2.47;1.60;;;8.80;81.30;;;;;;5028983;28;20185;-89
2020/12/24 07:09:33;;;;;;;3.07;1.90;;;8.60;83.00;;;;;;5033774;28;20250;-89
2020/12/24 07:12:00;;;;;;;3.90;1.60;;;8.60;83.70;;;;;;5018615;28;20214;-89
2020/12/24 07:14:39;;;;;;;4.67;2.20;;;8.60;84.00;;;;;;5019510;28;20177;-89
2020/12/24 07:17:17;;;;;;;4.87;1.50;;;8.60;82.70;;;;;;5019958;28;20205;-88
2020/12/24 07:19:45;;;;;;;4.90;2.27;;;8.50;84.60;;;;;;5025257;28;20181;-89
2020/12/24 07:22:18;;;;;;;3.73;1.87;;;8.50;85.00;;;;;;5024385;28;20201;-89
2020/12/24 07:24:54;;;;;;;4.67;1.97;;;8.40;84.50;;;;;;5027465;28;20181;-89
2020/12/24 07:27:19;;;;;;;4.63;2.00;;;8.40;85.80;;;;;;5021921;28;20256;-88
2020/12/24 07:29:46;;;;;;;4.40;2.00;;;8.40;85.30;;;;;;5035129;28;20700;-89
2020/12/24 07:32:13;;;;;;;4.10;2.67;;;8.40;86.10;;;;;;5024678;28;20209;-89
2020/12/24 07:34:38;;;;;;;5.30;1.90;;;8.40;86.80;;;;;;5025689;28;20182;-89
2020/12/24 07:37:05;;;;;;;7.73;2.00;;;8.30;87.80;;;;;;5025917;28;20196;-88
2020/12/24 07:39:31;;;;;;;7.23;2.00;;;8.30;86.50;;;;;;5026575;28;20225;-89
2020/12/24 07:41:57;;;;;;;4.60;1.80;;;8.30;87.30;;;;;;5026689;28;20197;-89
2020/12/24 07:44:23;;;;;;;4.17;1.70;;;8.30;87.70;;;;;;5014649;28;20246;-88
2020/12/24 07:46:51;;;;;;;3.70;1.77;;;8.20;87.60;;;;;;5006382;28;20188;-89
2020/12/24 07:49:18;;;;;;;4.57;2.00;;;8.20;86.90;;;;;;5022374;28;20235;-89
2020/12/24 07:51:54;;;;;;;4.17;1.53;;;8.20;87.90;;;;;;5026077;28;20196;-88
2020/12/24 07:54:25;;;;;;;4.73;2.17;;;8.20;87.90;;;;;;5025298;28;20233;-89
2020/12/24 07:56:51;;;;;;;5.53;2.00;;;8.10;89.00;;;;;;5002172;28;20277;-89
2020/12/24 07:59:18;;;;;;;3.23;1.70;;;8.00;89.80;;;;;;4992114;28;20218;-89
2020/12/24 08:01:44;;;;;;;3.80;1.87;;;8.00;89.70;;;;;;5031548;28;20238;-89
2020/12/24 08:04:10;;;;;;;9.60;2.23;;;8.00;88.70;;;;;;5037106;28;20212;-88
2020/12/24 08:06:36;;;;;;;3.50;1.60;;;8.00;89.60;;;;;;5026385;28;20213;-89
2020/12/24 08:09:12;;;;;;;4.90;1.70;;;7.90;90.80;;;;;;5039438;28;20276;-89
2020/12/24 08:11:39;;;;;;;5.43;2.40;;;7.90;90.50;;;;;;5037790;28;20185;-89
2020/12/24 08:14:05;;;;;;;6.03;2.23;;;7.90;91.20;;;;;;5027132;28;20224;-89
2020/12/24 08:16:36;;;;;;;5.53;2.00;;;7.90;90.30;;;;;;5026879;28;20216;-89
2020/12/24 08:19:20;;;;;;;7.90;2.70;;;7.80;92.00;;;;;;5024382;28;20824;-90
2020/12/24 08:22:05;;;;;;;4.50;2.30;;;7.90;90.90;;;;;;5027637;28;20177;-91
2020/12/24 08:24:32;;;;;;;5.53;1.87;;;7.90;90.20;;;;;;5022126;28;20186;-90
2020/12/24 08:26:59;;;;;;;5.53;1.93;;;7.80;92.00;;;;;;5025681;28;20200;-91
2020/12/24 08:29:26;;;;;;;3.67;1.63;;;7.80;92.00;;;;;;5040835;28;20227;-91
2020/12/24 08:31:52;;;;;;;2.43;1.70;;;7.70;92.30;;;;;;5044697;28;20193;-91
2020/12/24 08:34:17;;;;;;;3.60;2.20;;;7.80;92.80;;;;;;5045099;28;20192;-90
2020/12/24 08:36:48;;;;;;;6.93;1.90;;;7.80;93.00;;;;;;5037606;28;20208;-91
2020/12/24 08:39:15;;;;;;;5.93;2.17;;;7.90;91.80;;;;;;5010457;28;20312;-91
2020/12/24 08:41:44;;;;;;;7.73;2.30;;;7.80;92.70;;;;;;5009342;28;20181;-90
2020/12/24 08:44:15;;;;;;;3.90;1.93;;;7.70;93.70;;;;;;5010806;28;20186;-90
2020/12/24 08:46:41;;;;;;;4.27;2.57;;;7.80;92.20;;;;;;5027956;28;20169;-91
2020/12/24 08:49:26;;;;;;;3.63;1.70;;;7.80;93.10;;;;;;5027102;28;20205;-90
2020/12/24 08:52:22;;;;;;;2.50;1.90;;;7.90;93.00;;;;;;5026832;28;20245;-89
2020/12/24 08:55:03;;;;;;;7.03;2.73;;;7.80;92.60;;;;;;5026255;28;20233;-89
2020/12/24 08:57:29;;;;;;;3.30;2.00;;;7.90;93.70;;;;;;5040654;28;20191;-90
2020/12/24 08:59:59;;;;;;;4.73;2.17;;;7.90;92.60;;;;;;5011237;28;20200;-88
2020/12/24 09:02:32;;;;;;;5.20;1.90;;;7.90;93.10;;;;;;5042929;28;20208;-89
2020/12/24 09:05:00;;;;;;;4.10;2.00;;;7.90;93.60;;;;;;5039731;28;20172;-89
2020/12/24 09:07:26;;;;;;;3.73;1.70;;;7.90;94.40;;;;;;5027727;28;20249;-88
2020/12/24 09:10:06;;;;;;;3.07;1.80;;;7.80;94.70;;;;;;5028538;28;20182;-85
2020/12/24 09:12:33;;;;;;;4.47;1.93;;;7.90;96.30;;;;;;5026552;28;20217;-86
2020/12/24 09:15:03;;;;;;;5.90;2.00;;;8.10;95.40;;;;;;5025599;28;20223;-86
2020/12/24 09:17:28;;;;;;;3.97;1.73;;;8.00;94.80;;;;;;5025841;28;20213;-87
2020/12/24 09:20:11;;;;;;;5.10;2.33;;;8.10;93.60;;;;;;5023732;28;20242;-87
2020/12/24 09:22:51;;;;;;;4.73;2.13;;;8.00;94.50;;;;;;5025026;28;20209;-88
2020/12/24 09:25:34;;;;;;;4.17;2.00;;;8.00;94.90;;;;;;5013605;28;20189;-87
2020/12/24 09:28:02;;;;;;;6.53;1.97;;;8.10;94.30;;;;;;5033924;28;20181;-90
2020/12/24 09:30:28;;;;;;;5.63;2.00;;;7.90;95.10;;;;;;5034770;28;20564;-90
2020/12/24 09:33:02;;;;;;;5.87;1.90;;;7.90;95.80;;;;;;5029149;28;20214;-88
2020/12/24 09:35:30;;;;;;;6.60;2.13;;;7.90;95.20;;;;;;5028922;28;20201;-90
2020/12/24 09:37:56;;;;;;;4.70;2.40;;;7.90;93.90;;;;;;5029210;28;20209;-90
2020/12/24 09:40:23;;;;;;;4.97;1.73;;;7.90;95.00;;;;;;5028536;28;20209;-90
2020/12/24 09:42:49;;;;;;;4.53;2.33;;;7.90;93.90;;;;;;5023022;28;20241;-90
2020/12/24 09:45:15;;;;;;;6.50;2.00;;;7.90;95.80;;;;;;5030133;28;20240;-90
2020/12/24 09:47:45;;;;;;;5.63;1.60;;;7.90;95.30;;;;;;5030847;28;20193;-91
2020/12/24 09:50:12;;;;;;;3.13;1.90;;;7.90;95.00;;;;;;5035335;28;20216;-91
2020/12/24 09:52:38;;;;;;;3.40;1.70;;;7.90;93.50;;;;;;5031185;28;20239;-91
2020/12/24 09:55:04;;;;;;;4.90;2.10;;;7.90;93.90;;;;;;5027340;28;20229;-92
2020/12/24 09:57:35;;;;;;;4.17;1.80;;;8.00;92.40;;;;;;5011305;28;20693;-87
2020/12/24 10:00:03;;;;;;;4.03;1.60;;;8.10;93.10;;;;;;5029381;28;20221;-88
2020/12/24 10:02:29;;;;;;;3.90;1.90;;;8.20;91.00;;;;;;5030789;28;20201;-86
2020/12/24 10:04:55;;;;;;;2.23;1.27;;;8.20;92.80;;;;;;5036287;28;20242;-87
2020/12/24 10:07:24;;;;;;;2.60;1.50;;;8.30;90.50;;;;;;5033795;28;20622;-88
2020/12/24 10:09:51;;;;;;;2.33;1.40;;;8.20;91.30;;;;;;5039521;28;20186;-87
2020/12/24 10:12:24;;;;;;;1.93;1.47;;;8.30;90.00;;;;;;5028826;28;20271;-86
2020/12/24 10:14:51;;;;;;;1.67;1.57;;;8.40;90.30;;;;;;5037919;28;20186;-87
2020/12/24 10:17:17;;;;;;;5.53;1.97;;;8.40;91.50;;;;;;5035158;28;20259;-88
2020/12/24 10:19:43;;;;;;;1.93;1.40;;;8.40;91.10;;;;;;5033012;28;20189;-88
2020/12/24 10:22:13;;;;;;;1.83;1.53;;;8.50;89.40;;;;;;5033189;28;20206;-88
2020/12/24 10:24:40;;;;;;;2.00;1.10;;;8.30;90.80;;;;;;5047766;28;20178;-87
2020/12/24 10:27:07;;;;;;;6.93;1.83;;;8.40;89.50;;;;;;5052287;28;20189;-83
2020/12/24 10:29:33;;;;;;;1.40;1.10;;;8.40;89.50;;;;;;5038307;28;20197;-86
2020/12/24 10:31:59;;;;;;;2.23;1.50;;;8.50;87.90;;;;;;5035018;28;20217;-86
2020/12/24 10:34:25;;;;;;;1.23;1.20;;;8.40;88.10;;;;;;5036382;28;20201;-88
2020/12/24 10:36:52;;;;;;;3.07;1.50;;;8.60;86.80;;;;;;5031654;28;20239;-88
2020/12/24 10:39:17;;;;;;;1.00;1.00;;;8.60;86.30;;;;;;5032496;28;20220;-88
2020/12/24 10:41:49;;;;;;;2.23;1.20;;;8.70;85.20;;;;;;5037706;28;20186;-87
2020/12/24 10:44:15;;;;;;;1.30;1.10;;;8.80;84.50;;;;;;5039308;28;20628;-89
2020/12/24 10:46:40;;;;;;;1.63;1.10;;;8.80;83.50;;;;;;5042665;28;20276;-90
2020/12/24 10:49:06;;;;;;;1.27;1.20;;;8.90;83.70;;;;;;5028959;28;20232;-88
2020/12/24 10:51:32;;;;;;;1.53;1.10;;;9.10;80.70;;;;;;5040819;28;20719;-90
2020/12/24 10:53:58;;;;;;;2.97;1.47;;;9.00;81.60;;;;;;5035292;28;20216;-88
2020/12/24 10:56:23;;;;;;;2.10;1.30;;;9.10;81.60;;;;;;5032102;28;20201;-87
2020/12/24 10:58:50;;;;;;;3.77;1.57;;;9.30;78.90;;;;;;5030252;28;20205;-88
2020/12/24 11:01:18;;;;;;;1.90;1.20;;;9.40;80.60;;;;;;5031284;28;20193;-88
2020/12/24 11:03:44;;;;;;;1.03;1.03;;;9.30;81.40;;;;;;5026228;28;20668;-85
2020/12/24 11:06:18;;;;;;;1.30;1.20;;;9.40;80.40;;;;;;5026297;28;20185;-87
2020/12/24 11:08:44;;;;;;;0.93;0.93;;;9.40;78.00;;;;;;5028388;28;20205;-87
2020/12/24 11:11:10;;;;;;;2.17;1.23;;;9.50;78.50;;;;;;5033212;28;20201;-87
2020/12/24 11:13:35;;;;;;;1.43;1.03;;;9.50;79.40;;;;;;5029933;28;20224;-88
2020/12/24 11:16:01;;;;;;;2.60;1.20;;;9.50;78.80;;;;;;5028867;28;20692;-89
2020/12/24 11:18:27;;;;;;;1.43;1.33;;;9.50;77.60;;;;;;5027592;28;20270;-90
2020/12/24 11:20:55;;;;;;;1.90;1.10;;;9.30;79.60;;;;;;5034318;28;20189;-89
2020/12/24 11:23:22;;;;;;;2.70;1.40;;;9.30;79.70;;;;;;5032176;28;20209;-90
2020/12/24 11:25:47;;;;;;;2.07;1.50;;;9.30;82.70;;;;;;5035937;28;20517;-88
2020/12/24 11:28:13;;;;;;;1.50;1.40;;;9.10;82.90;;;;;;5033212;28;20200;-90
2020/12/24 11:30:39;;;;;;;2.00;1.50;;;9.20;83.00;;;;;;5028175;28;20189;-89
2020/12/24 11:33:05;;;;;;;1.97;1.50;;;9.30;82.60;;;;;;5032844;28;20244;-90
2020/12/24 11:35:31;;;;;;;1.70;1.47;;;9.30;82.00;;;;;;5027777;28;20600;-90
2020/12/24 11:37:57;;;;;;;1.40;1.30;;;9.30;81.80;;;;;;5034043;28;20216;-87
2020/12/24 11:40:23;;;;;;;2.47;1.50;;;9.10;83.70;;;;;;5032270;28;20185;-91
2020/12/24 11:42:48;;;;;;;2.00;1.63;;;9.10;81.50;;;;;;5018559;28;20209;-89
2020/12/24 11:45:14;;;;;;;1.60;1.47;;;9.10;83.10;;;;;;5031773;28;20318;-89
2020/12/24 11:47:40;;;;;;;1.77;1.47;;;9.10;83.80;;;;;;5038015;28;20209;-88
2020/12/24 11:50:09;;;;;;;2.77;1.30;;;9.00;83.40;;;;;;5037346;28;20201;-91
2020/12/24 11:52:38;;;;;;;3.60;1.63;;;9.00;84.40;;;;;;5009955;28;20213;-92
2020/12/24 11:55:05;;;;;;;2.10;1.43;;;9.10;83.00;;;;;;5031243;28;20189;-92
2020/12/24 11:57:32;;;;;;;1.43;1.33;;;9.00;82.40;;;;;;5030551;28;20182;-92
2020/12/24 11:59:58;;;;;;;1.57;1.40;;;9.00;84.60;;;;;;5009228;28;20205;-92
2020/12/24 12:02:23;;;;;;;2.83;1.50;;;8.80;82.70;;;;;;5033246;28;20207;-91
2020/12/24 12:04:49;;;;;;;3.53;1.87;;;8.80;83.50;;;;;;5017233;28;20193;-92
2020/12/24 12:07:16;;;;;;;2.37;1.30;;;8.80;83.60;;;;;;5035272;28;20571;-91
2020/12/24 12:09:42;;;;;;;2.20;1.50;;;8.90;83.50;;;;;;5034439;28;20185;-91
2020/12/24 12:12:07;;;;;;;2.90;1.50;;;8.90;85.10;;;;;;5035420;28;20234;-91
2020/12/24 12:14:33;;;;;;;2.70;1.43;;;8.80;83.90;;;;;;5037070;28;20186;-91
2020/12/24 12:17:00;;;;;;;1.40;1.30;;;8.80;85.00;;;;;;5042435;28;20284;-91
2020/12/24 12:19:26;;;;;;;1.60;1.30;;;8.80;85.30;;;;;;5010431;28;20266;-91
2020/12/24 12:21:52;;;;;;;2.67;2.37;;;8.80;85.30;;;;;;5020154;28;20648;-91
2020/12/24 12:24:18;;;;;;;1.70;1.47;;;8.80;86.80;;;;;;5015988;28;20193;-91
2020/12/24 12:26:44;;;;;;;2.80;1.83;;;8.80;86.70;;;;;;5018036;28;20657;-91
2020/12/24 12:29:11;;;;;;;2.00;1.30;;;8.80;85.40;;;;;;5032384;28;20201;-91
2020/12/24 12:31:37;;;;;;;1.50;1.30;;;8.80;85.30;;;;;;5010931;28;20315;-91
2020/12/24 12:34:06;;;;;;;4.30;1.40;;;8.70;86.10;;;;;;5030959;28;20197;-91
2020/12/24 12:36:32;;;;;;;2.53;1.30;;;8.70;87.60;;;;;;5039269;28;20193;-92
2020/12/24 12:38:58;;;;;;;3.20;1.40;;;8.80;86.10;;;;;;5012280;28;20301;-91
2020/12/24 12:41:24;;;;;;;1.47;1.37;;;8.80;85.10;;;;;;5029352;28;20245;-91
2020/12/24 12:43:50;;;;;;;1.30;1.20;;;8.70;86.10;;;;;;5034028;28;20301;-92
2020/12/24 12:46:22;;;;;;;1.80;1.70;;;8.80;86.90;;;;;;5018218;28;20216;-90
2020/12/24 12:48:48;;;;;;;1.77;1.67;;;8.60;88.30;;;;;;5035367;28;20193;-91
2020/12/24 12:51:14;;;;;;;2.40;2.23;;;8.60;90.50;;;;;;5037667;28;20214;-91
2020/12/24 12:53:41;;;;;;;1.60;1.50;;;8.60;89.60;;;;;;5040209;28;20222;-91
2020/12/24 12:56:10;;;;;;;2.43;1.80;;;8.60;90.20;;;;;;5035698;28;20824;-91
2020/12/24 12:58:38;;;;;;;2.57;1.90;;;8.50;91.90;;;;;;5016952;28;20718;-91
2020/12/24 13:01:04;;;;;;;11.47;9.57;;;8.50;92.50;;;;;;5032394;28;20182;-91